sensor_id;sensor_type;location;lat;lon;timestamp;P1;durP1;ratioP1;P2;durP2;ratioP2
40433;SDS011;26146;51.114;5.654;2023-03-04T00:02:27;13.50;;;3.50;;
40433;SDS011;26146;51.114;5.654;2023-03-04T00:06:28;14.53;;;3.30;;
40433;SDS011;26146;51.114;5.654;2023-03-04T00:10:31;11.93;;;3.50;;
40433;SDS011;26146;51.114;5.654;2023-03-04T00:14:32;13.30;;;3.83;;
40433;SDS011;26146;51.114;5.654;2023-03-04T00:18:33;12.40;;;3.90;;
40433;SDS011;26146;51.114;5.654;2023-03-04T00:22:34;11.57;;;3.30;;
40433;SDS011;26146;51.114;5.654;2023-03-04T00:26:35;13.13;;;3.70;;
40433;SDS011;26146;51.114;5.654;2023-03-04T00:30:39;13.77;;;4.00;;
40433;SDS011;26146;51.114;5.654;2023-03-04T00:34:39;13.03;;;3.50;;
40433;SDS011;26146;51.114;5.654;2023-03-04T00:38:42;13.03;;;3.40;;
40433;SDS011;26146;51.114;5.654;2023-03-04T00:42:43;13.43;;;3.73;;
40433;SDS011;26146;51.114;5.654;2023-03-04T00:46:44;13.60;;;3.90;;
40433;SDS011;26146;51.114;5.654;2023-03-04T00:50:47;15.10;;;3.63;;
40433;SDS011;26146;51.114;5.654;2023-03-04T00:54:50;13.10;;;3.60;;
40433;SDS011;26146;51.114;5.654;2023-03-04T00:58:51;14.60;;;3.57;;
40433;SDS011;26146;51.114;5.654;2023-03-04T01:02:52;14.50;;;3.50;;
40433;SDS011;26146;51.114;5.654;2023-03-04T01:06:53;14.33;;;3.40;;
40433;SDS011;26146;51.114;5.654;2023-03-04T01:10:57;16.87;;;3.43;;
40433;SDS011;26146;51.114;5.654;2023-03-04T01:14:57;15.40;;;3.50;;
40433;SDS011;26146;51.114;5.654;2023-03-04T01:19:01;17.77;;;3.43;;
40433;SDS011;26146;51.114;5.654;2023-03-04T01:23:02;10.97;;;3.37;;
40433;SDS011;26146;51.114;5.654;2023-03-04T01:27:03;13.47;;;2.77;;
40433;SDS011;26146;51.114;5.654;2023-03-04T01:31:04;14.27;;;3.07;;
40433;SDS011;26146;51.114;5.654;2023-03-04T01:35:07;13.17;;;3.50;;
40433;SDS011;26146;51.114;5.654;2023-03-04T01:39:08;12.70;;;2.87;;
40433;SDS011;26146;51.114;5.654;2023-03-04T01:43:17;17.07;;;3.10;;
40433;SDS011;26146;51.114;5.654;2023-03-04T01:47:22;11.87;;;2.90;;
40433;SDS011;26146;51.114;5.654;2023-03-04T01:51:27;15.60;;;3.33;;
40433;SDS011;26146;51.114;5.654;2023-03-04T01:55:28;11.93;;;2.70;;
40433;SDS011;26146;51.114;5.654;2023-03-04T01:59:32;18.33;;;2.77;;
40433;SDS011;26146;51.114;5.654;2023-03-04T02:03:33;17.97;;;2.27;;
40433;SDS011;26146;51.114;5.654;2023-03-04T02:07:34;16.90;;;2.60;;
40433;SDS011;26146;51.114;5.654;2023-03-04T02:11:35;16.03;;;2.67;;
40433;SDS011;26146;51.114;5.654;2023-03-04T02:15:37;12.43;;;2.00;;
40433;SDS011;26146;51.114;5.654;2023-03-04T02:19:47;14.60;;;2.40;;
40433;SDS011;26146;51.114;5.654;2023-03-04T02:28:41;17.33;;;2.83;;
40433;SDS011;26146;51.114;5.654;2023-03-04T02:32:42;15.47;;;2.90;;
40433;SDS011;26146;51.114;5.654;2023-03-04T02:36:44;16.97;;;2.60;;
40433;SDS011;26146;51.114;5.654;2023-03-04T02:40:47;17.03;;;2.50;;
40433;SDS011;26146;51.114;5.654;2023-03-04T02:44:58;16.93;;;2.50;;
40433;SDS011;26146;51.114;5.654;2023-03-04T02:48:59;13.63;;;2.40;;
40433;SDS011;26146;51.114;5.654;2023-03-04T02:53:00;15.07;;;2.60;;
40433;SDS011;26146;51.114;5.654;2023-03-04T02:57:03;13.97;;;2.03;;
40433;SDS011;26146;51.114;5.654;2023-03-04T03:01:08;16.10;;;2.43;;
40433;SDS011;26146;51.114;5.654;2023-03-04T03:05:10;16.53;;;1.97;;
40433;SDS011;26146;51.114;5.654;2023-03-04T03:09:12;16.43;;;2.80;;
40433;SDS011;26146;51.114;5.654;2023-03-04T03:13:13;13.77;;;1.93;;
40433;SDS011;26146;51.114;5.654;2023-03-04T03:17:14;15.40;;;2.10;;
40433;SDS011;26146;51.114;5.654;2023-03-04T03:21:14;12.47;;;2.20;;
40433;SDS011;26146;51.114;5.654;2023-03-04T03:25:16;17.60;;;2.00;;
40433;SDS011;26146;51.114;5.654;2023-03-04T03:29:17;17.00;;;2.20;;
40433;SDS011;26146;51.114;5.654;2023-03-04T03:33:18;15.93;;;2.37;;
40433;SDS011;26146;51.114;5.654;2023-03-04T03:37:21;15.63;;;1.97;;
40433;SDS011;26146;51.114;5.654;2023-03-04T03:41:22;16.40;;;1.73;;
40433;SDS011;26146;51.114;5.654;2023-03-04T03:45:23;13.10;;;2.13;;
40433;SDS011;26146;51.114;5.654;2023-03-04T03:49:24;17.20;;;2.20;;
40433;SDS011;26146;51.114;5.654;2023-03-04T03:53:25;11.43;;;1.90;;
40433;SDS011;26146;51.114;5.654;2023-03-04T03:57:26;18.40;;;2.33;;
40433;SDS011;26146;51.114;5.654;2023-03-04T04:01:27;12.73;;;1.80;;
40433;SDS011;26146;51.114;5.654;2023-03-04T04:05:30;16.50;;;2.10;;
40433;SDS011;26146;51.114;5.654;2023-03-04T04:09:31;13.13;;;2.17;;
40433;SDS011;26146;51.114;5.654;2023-03-04T04:13:32;14.63;;;2.37;;
40433;SDS011;26146;51.114;5.654;2023-03-04T04:17:33;14.00;;;2.10;;
40433;SDS011;26146;51.114;5.654;2023-03-04T04:21:34;14.57;;;1.97;;
40433;SDS011;26146;51.114;5.654;2023-03-04T04:25:35;13.57;;;2.17;;
40433;SDS011;26146;51.114;5.654;2023-03-04T04:29:39;14.80;;;2.00;;
40433;SDS011;26146;51.114;5.654;2023-03-04T04:33:40;11.13;;;1.70;;
40433;SDS011;26146;51.114;5.654;2023-03-04T04:37:41;12.17;;;2.37;;
40433;SDS011;26146;51.114;5.654;2023-03-04T04:41:45;11.83;;;1.40;;
40433;SDS011;26146;51.114;5.654;2023-03-04T04:45:46;11.03;;;1.83;;
40433;SDS011;26146;51.114;5.654;2023-03-04T04:49:47;12.20;;;1.50;;
40433;SDS011;26146;51.114;5.654;2023-03-04T04:53:48;13.67;;;1.60;;
40433;SDS011;26146;51.114;5.654;2023-03-04T04:57:49;13.23;;;1.50;;
40433;SDS011;26146;51.114;5.654;2023-03-04T05:01:50;10.67;;;1.60;;
40433;SDS011;26146;51.114;5.654;2023-03-04T05:05:51;12.27;;;1.60;;
40433;SDS011;26146;51.114;5.654;2023-03-04T05:09:54;14.90;;;1.90;;
40433;SDS011;26146;51.114;5.654;2023-03-04T05:13:55;12.40;;;1.80;;
40433;SDS011;26146;51.114;5.654;2023-03-04T05:17:58;13.50;;;1.70;;
40433;SDS011;26146;51.114;5.654;2023-03-04T05:21:59;13.63;;;1.80;;
40433;SDS011;26146;51.114;5.654;2023-03-04T05:26:00;10.93;;;1.77;;
40433;SDS011;26146;51.114;5.654;2023-03-04T05:30:05;12.88;;;1.67;;
40433;SDS011;26146;51.114;5.654;2023-03-04T05:34:09;10.67;;;1.53;;
40433;SDS011;26146;51.114;5.654;2023-03-04T05:38:10;12.07;;;1.50;;
40433;SDS011;26146;51.114;5.654;2023-03-04T05:42:13;12.57;;;1.73;;
40433;SDS011;26146;51.114;5.654;2023-03-04T05:46:14;10.13;;;1.60;;
40433;SDS011;26146;51.114;5.654;2023-03-04T05:50:17;13.80;;;1.57;;
40433;SDS011;26146;51.114;5.654;2023-03-04T05:54:18;15.27;;;1.80;;
40433;SDS011;26146;51.114;5.654;2023-03-04T05:58:20;13.40;;;1.73;;
40433;SDS011;26146;51.114;5.654;2023-03-04T06:02:22;13.20;;;1.70;;
40433;SDS011;26146;51.114;5.654;2023-03-04T06:06:23;13.97;;;1.90;;
40433;SDS011;26146;51.114;5.654;2023-03-04T06:10:26;14.93;;;1.87;;
40433;SDS011;26146;51.114;5.654;2023-03-04T06:14:27;11.17;;;1.60;;
40433;SDS011;26146;51.114;5.654;2023-03-04T06:18:30;10.27;;;1.30;;
40433;SDS011;26146;51.114;5.654;2023-03-04T06:22:31;11.37;;;1.77;;
40433;SDS011;26146;51.114;5.654;2023-03-04T06:26:33;11.83;;;2.47;;
40433;SDS011;26146;51.114;5.654;2023-03-04T06:30:34;12.63;;;2.40;;
40433;SDS011;26146;51.114;5.654;2023-03-04T06:34:56;12.30;;;2.07;;
40433;SDS011;26146;51.114;5.654;2023-03-04T06:38:57;10.83;;;2.03;;
40433;SDS011;26146;51.114;5.654;2023-03-04T06:42:58;11.43;;;1.80;;
40433;SDS011;26146;51.114;5.654;2023-03-04T06:46:59;16.13;;;2.90;;
40433;SDS011;26146;51.114;5.654;2023-03-04T06:51:04;11.50;;;1.50;;
40433;SDS011;26146;51.114;5.654;2023-03-04T06:55:12;13.20;;;1.80;;
40433;SDS011;26146;51.114;5.654;2023-03-04T06:59:13;15.80;;;2.20;;
40433;SDS011;26146;51.114;5.654;2023-03-04T07:03:16;11.73;;;2.10;;
40433;SDS011;26146;51.114;5.654;2023-03-04T07:07:17;16.53;;;2.80;;
40433;SDS011;26146;51.114;5.654;2023-03-04T07:11:19;13.67;;;4.87;;
40433;SDS011;26146;51.114;5.654;2023-03-04T07:15:21;13.07;;;2.53;;
40433;SDS011;26146;51.114;5.654;2023-03-04T07:19:22;14.17;;;2.43;;
40433;SDS011;26146;51.114;5.654;2023-03-04T07:23:23;13.38;;;1.92;;
40433;SDS011;26146;51.114;5.654;2023-03-04T07:27:26;10.73;;;1.50;;
40433;SDS011;26146;51.114;5.654;2023-03-04T07:31:28;9.73;;;1.63;;
40433;SDS011;26146;51.114;5.654;2023-03-04T07:35:31;14.37;;;2.07;;
40433;SDS011;26146;51.114;5.654;2023-03-04T07:39:32;11.33;;;2.80;;
40433;SDS011;26146;51.114;5.654;2023-03-04T07:43:33;16.53;;;2.30;;
40433;SDS011;26146;51.114;5.654;2023-03-04T07:47:36;13.23;;;2.83;;
40433;SDS011;26146;51.114;5.654;2023-03-04T07:51:38;13.30;;;2.23;;
40433;SDS011;26146;51.114;5.654;2023-03-04T07:55:39;12.40;;;1.67;;
40433;SDS011;26146;51.114;5.654;2023-03-04T07:59:40;11.93;;;1.77;;
40433;SDS011;26146;51.114;5.654;2023-03-04T08:03:41;13.50;;;1.50;;
40433;SDS011;26146;51.114;5.654;2023-03-04T08:07:42;9.93;;;1.50;;
40433;SDS011;26146;51.114;5.654;2023-03-04T08:11:43;8.10;;;1.43;;
40433;SDS011;26146;51.114;5.654;2023-03-04T08:15:44;11.93;;;2.40;;
40433;SDS011;26146;51.114;5.654;2023-03-04T08:19:45;11.07;;;2.20;;
40433;SDS011;26146;51.114;5.654;2023-03-04T08:23:46;13.17;;;1.20;;
40433;SDS011;26146;51.114;5.654;2023-03-04T08:27:52;10.23;;;1.60;;
40433;SDS011;26146;51.114;5.654;2023-03-04T08:31:53;8.83;;;1.20;;
40433;SDS011;26146;51.114;5.654;2023-03-04T08:35:57;11.17;;;1.33;;
40433;SDS011;26146;51.114;5.654;2023-03-04T08:39:58;9.83;;;1.37;;
40433;SDS011;26146;51.114;5.654;2023-03-04T08:44:01;10.57;;;1.60;;
40433;SDS011;26146;51.114;5.654;2023-03-04T08:48:02;8.00;;;1.40;;
40433;SDS011;26146;51.114;5.654;2023-03-04T08:52:03;9.33;;;1.63;;
40433;SDS011;26146;51.114;5.654;2023-03-04T08:56:05;11.67;;;1.60;;
40433;SDS011;26146;51.114;5.654;2023-03-04T09:00:07;9.50;;;1.80;;
40433;SDS011;26146;51.114;5.654;2023-03-04T09:04:11;11.07;;;1.60;;
40433;SDS011;26146;51.114;5.654;2023-03-04T09:08:13;8.97;;;1.60;;
40433;SDS011;26146;51.114;5.654;2023-03-04T09:12:16;9.90;;;2.00;;
40433;SDS011;26146;51.114;5.654;2023-03-04T09:16:17;9.93;;;2.33;;
40433;SDS011;26146;51.114;5.654;2023-03-04T09:20:18;11.27;;;2.27;;
40433;SDS011;26146;51.114;5.654;2023-03-04T09:24:20;11.83;;;1.83;;
40433;SDS011;26146;51.114;5.654;2023-03-04T09:28:21;10.03;;;2.10;;
40433;SDS011;26146;51.114;5.654;2023-03-04T09:32:24;9.90;;;1.70;;
40433;SDS011;26146;51.114;5.654;2023-03-04T09:36:25;11.93;;;2.10;;
40433;SDS011;26146;51.114;5.654;2023-03-04T09:40:27;9.37;;;1.70;;
40433;SDS011;26146;51.114;5.654;2023-03-04T09:44:37;8.17;;;1.60;;
40433;SDS011;26146;51.114;5.654;2023-03-04T09:48:49;8.67;;;1.80;;
40433;SDS011;26146;51.114;5.654;2023-03-04T09:57:22;9.57;;;1.60;;
40433;SDS011;26146;51.114;5.654;2023-03-04T10:01:30;8.73;;;1.50;;
40433;SDS011;26146;51.114;5.654;2023-03-04T10:05:40;7.70;;;1.17;;
40433;SDS011;26146;51.114;5.654;2023-03-04T10:17:55;7.23;;;1.30;;
40433;SDS011;26146;51.114;5.654;2023-03-04T10:26:29;7.53;;;1.33;;
40433;SDS011;26146;51.114;5.654;2023-03-04T10:30:48;8.90;;;1.60;;
40433;SDS011;26146;51.114;5.654;2023-03-04T10:34:59;5.83;;;1.00;;
40433;SDS011;26146;51.114;5.654;2023-03-04T10:43:43;7.33;;;1.20;;
40433;SDS011;26146;51.114;5.654;2023-03-04T10:47:54;10.40;;;1.37;;
40433;SDS011;26146;51.114;5.654;2023-03-04T11:00:42;9.07;;;1.30;;
40433;SDS011;26146;51.114;5.654;2023-03-04T11:09:16;7.53;;;1.00;;
40433;SDS011;26146;51.114;5.654;2023-03-04T11:13:25;6.00;;;1.10;;
40433;SDS011;26146;51.114;5.654;2023-03-04T11:17:42;5.63;;;1.00;;
40433;SDS011;26146;51.114;5.654;2023-03-04T11:21:47;6.33;;;1.10;;
40433;SDS011;26146;51.114;5.654;2023-03-04T11:26:03;11.47;;;1.20;;
40433;SDS011;26146;51.114;5.654;2023-03-04T11:38:35;7.60;;;1.30;;
40433;SDS011;26146;51.114;5.654;2023-03-04T11:42:51;6.20;;;1.20;;
40433;SDS011;26146;51.114;5.654;2023-03-04T11:51:29;9.20;;;1.70;;
40433;SDS011;26146;51.114;5.654;2023-03-04T12:55:23;9.23;;;1.70;;
40433;SDS011;26146;51.114;5.654;2023-03-04T12:59:36;5.63;;;1.50;;
40433;SDS011;26146;51.114;5.654;2023-03-04T13:04:16;6.77;;;1.47;;
40433;SDS011;26146;51.114;5.654;2023-03-04T13:16:56;7.60;;;1.55;;
40433;SDS011;26146;51.114;5.654;2023-03-04T13:21:36;7.33;;;1.87;;
40433;SDS011;26146;51.114;5.654;2023-03-04T13:25:46;6.80;;;1.57;;
40433;SDS011;26146;51.114;5.654;2023-03-04T13:29:49;8.43;;;1.77;;
40433;SDS011;26146;51.114;5.654;2023-03-04T13:33:51;6.53;;;1.60;;
40433;SDS011;26146;51.114;5.654;2023-03-04T13:37:56;6.40;;;1.63;;
40433;SDS011;26146;51.114;5.654;2023-03-04T13:41:58;7.23;;;1.60;;
40433;SDS011;26146;51.114;5.654;2023-03-04T13:54:48;6.23;;;1.50;;
40433;SDS011;26146;51.114;5.654;2023-03-04T13:58:50;6.97;;;1.70;;
40433;SDS011;26146;51.114;5.654;2023-03-04T14:03:13;8.90;;;1.83;;
40433;SDS011;26146;51.114;5.654;2023-03-04T14:15:33;7.70;;;2.00;;
40433;SDS011;26146;51.114;5.654;2023-03-04T14:19:42;9.77;;;2.17;;
40433;SDS011;26146;51.114;5.654;2023-03-04T14:23:44;8.67;;;2.00;;
40433;SDS011;26146;51.114;5.654;2023-03-04T14:28:08;7.87;;;2.10;;
40433;SDS011;26146;51.114;5.654;2023-03-04T14:32:11;6.57;;;1.80;;
40433;SDS011;26146;51.114;5.654;2023-03-04T14:36:18;7.37;;;1.80;;
40433;SDS011;26146;51.114;5.654;2023-03-04T14:40:25;9.47;;;2.00;;
40433;SDS011;26146;51.114;5.654;2023-03-04T14:44:40;7.37;;;2.40;;
40433;SDS011;26146;51.114;5.654;2023-03-04T14:52:50;6.70;;;2.00;;
40433;SDS011;26146;51.114;5.654;2023-03-04T15:05:33;7.20;;;1.83;;
40433;SDS011;26146;51.114;5.654;2023-03-04T15:09:35;8.63;;;1.90;;
40433;SDS011;26146;51.114;5.654;2023-03-04T15:17:44;6.93;;;1.90;;
40433;SDS011;26146;51.114;5.654;2023-03-04T15:21:45;7.33;;;1.83;;
40433;SDS011;26146;51.114;5.654;2023-03-04T15:25:52;8.37;;;2.00;;
40433;SDS011;26146;51.114;5.654;2023-03-04T15:29:56;8.40;;;2.10;;
40433;SDS011;26146;51.114;5.654;2023-03-04T15:33:59;6.80;;;2.00;;
40433;SDS011;26146;51.114;5.654;2023-03-04T15:38:00;6.40;;;2.20;;
40433;SDS011;26146;51.114;5.654;2023-03-04T15:42:02;8.00;;;2.20;;
40433;SDS011;26146;51.114;5.654;2023-03-04T15:46:08;8.20;;;2.40;;
40433;SDS011;26146;51.114;5.654;2023-03-04T15:50:11;6.70;;;2.10;;
40433;SDS011;26146;51.114;5.654;2023-03-04T15:54:12;8.37;;;2.40;;
40433;SDS011;26146;51.114;5.654;2023-03-04T15:58:16;7.70;;;2.60;;
40433;SDS011;26146;51.114;5.654;2023-03-04T16:02:21;9.20;;;3.60;;
40433;SDS011;26146;51.114;5.654;2023-03-04T16:06:24;9.73;;;4.00;;
40433;SDS011;26146;51.114;5.654;2023-03-04T16:10:28;10.00;;;4.07;;
40433;SDS011;26146;51.114;5.654;2023-03-04T16:14:32;9.93;;;4.33;;
40433;SDS011;26146;51.114;5.654;2023-03-04T16:18:36;9.40;;;4.00;;
40433;SDS011;26146;51.114;5.654;2023-03-04T16:22:37;10.13;;;4.33;;
40433;SDS011;26146;51.114;5.654;2023-03-04T16:26:38;8.90;;;3.50;;
40433;SDS011;26146;51.114;5.654;2023-03-04T16:30:39;9.27;;;3.80;;
40433;SDS011;26146;51.114;5.654;2023-03-04T16:34:41;12.00;;;4.80;;
40433;SDS011;26146;51.114;5.654;2023-03-04T16:38:42;22.57;;;8.70;;
40433;SDS011;26146;51.114;5.654;2023-03-04T16:42:43;14.53;;;6.10;;
40433;SDS011;26146;51.114;5.654;2023-03-04T16:46:44;10.17;;;3.87;;
40433;SDS011;26146;51.114;5.654;2023-03-04T16:50:45;12.63;;;5.87;;
40433;SDS011;26146;51.114;5.654;2023-03-04T16:54:46;12.43;;;4.90;;
40433;SDS011;26146;51.114;5.654;2023-03-04T16:58:47;8.90;;;3.60;;
40433;SDS011;26146;51.114;5.654;2023-03-04T17:02:58;12.20;;;5.30;;
40433;SDS011;26146;51.114;5.654;2023-03-04T17:07:00;12.07;;;4.27;;
40433;SDS011;26146;51.114;5.654;2023-03-04T17:11:01;10.73;;;4.40;;
40433;SDS011;26146;51.114;5.654;2023-03-04T17:15:02;10.17;;;4.00;;
40433;SDS011;26146;51.114;5.654;2023-03-04T17:19:04;9.73;;;3.60;;
40433;SDS011;26146;51.114;5.654;2023-03-04T17:23:05;15.83;;;6.20;;
40433;SDS011;26146;51.114;5.654;2023-03-04T17:27:06;12.93;;;3.83;;
40433;SDS011;26146;51.114;5.654;2023-03-04T17:31:12;8.90;;;3.17;;
40433;SDS011;26146;51.114;5.654;2023-03-04T17:35:15;9.70;;;2.40;;
40433;SDS011;26146;51.114;5.654;2023-03-04T17:39:16;12.23;;;2.70;;
40433;SDS011;26146;51.114;5.654;2023-03-04T17:43:19;15.47;;;1.90;;
40433;SDS011;26146;51.114;5.654;2023-03-04T17:47:23;11.53;;;1.50;;
40433;SDS011;26146;51.114;5.654;2023-03-04T17:51:42;10.27;;;1.37;;
40433;SDS011;26146;51.114;5.654;2023-03-04T18:00:16;11.93;;;1.57;;
40433;SDS011;26146;51.114;5.654;2023-03-04T18:04:18;13.13;;;1.70;;
40433;SDS011;26146;51.114;5.654;2023-03-04T18:08:22;12.50;;;1.80;;
40433;SDS011;26146;51.114;5.654;2023-03-04T18:12:23;9.57;;;1.70;;
40433;SDS011;26146;51.114;5.654;2023-03-04T18:16:26;9.50;;;1.50;;
40433;SDS011;26146;51.114;5.654;2023-03-04T18:20:30;11.90;;;1.60;;
40433;SDS011;26146;51.114;5.654;2023-03-04T18:24:31;8.27;;;1.30;;
40433;SDS011;26146;51.114;5.654;2023-03-04T18:28:32;9.67;;;1.27;;
40433;SDS011;26146;51.114;5.654;2023-03-04T18:32:33;10.33;;;1.30;;
40433;SDS011;26146;51.114;5.654;2023-03-04T18:36:34;8.40;;;1.20;;
40433;SDS011;26146;51.114;5.654;2023-03-04T18:40:38;10.03;;;1.50;;
40433;SDS011;26146;51.114;5.654;2023-03-04T18:44:42;8.27;;;1.23;;
40433;SDS011;26146;51.114;5.654;2023-03-04T18:48:50;11.37;;;1.60;;
40433;SDS011;26146;51.114;5.654;2023-03-04T18:52:53;14.07;;;1.77;;
40433;SDS011;26146;51.114;5.654;2023-03-04T18:56:55;9.43;;;1.83;;
40433;SDS011;26146;51.114;5.654;2023-03-04T19:00:58;10.93;;;2.17;;
40433;SDS011;26146;51.114;5.654;2023-03-04T19:05:05;7.75;;;1.55;;
40433;SDS011;26146;51.114;5.654;2023-03-04T19:09:10;13.87;;;1.40;;
40433;SDS011;26146;51.114;5.654;2023-03-04T19:13:11;10.53;;;1.20;;
40433;SDS011;26146;51.114;5.654;2023-03-04T19:17:12;8.77;;;1.17;;
40433;SDS011;26146;51.114;5.654;2023-03-04T19:21:16;9.23;;;1.17;;
40433;SDS011;26146;51.114;5.654;2023-03-04T19:25:17;8.80;;;1.40;;
40433;SDS011;26146;51.114;5.654;2023-03-04T19:29:18;9.57;;;1.63;;
40433;SDS011;26146;51.114;5.654;2023-03-04T19:33:19;6.40;;;1.27;;
40433;SDS011;26146;51.114;5.654;2023-03-04T19:37:20;6.77;;;1.60;;
40433;SDS011;26146;51.114;5.654;2023-03-04T19:41:22;7.90;;;1.20;;
40433;SDS011;26146;51.114;5.654;2023-03-04T19:45:23;7.93;;;1.00;;
40433;SDS011;26146;51.114;5.654;2023-03-04T19:49:24;13.20;;;3.33;;
40433;SDS011;26146;51.114;5.654;2023-03-04T19:53:25;17.27;;;4.87;;
40433;SDS011;26146;51.114;5.654;2023-03-04T19:57:26;9.13;;;2.30;;
40433;SDS011;26146;51.114;5.654;2023-03-04T20:01:33;9.13;;;2.20;;
40433;SDS011;26146;51.114;5.654;2023-03-04T20:05:36;10.37;;;2.40;;
40433;SDS011;26146;51.114;5.654;2023-03-04T20:09:37;11.67;;;2.80;;
40433;SDS011;26146;51.114;5.654;2023-03-04T20:13:38;10.80;;;2.57;;
40433;SDS011;26146;51.114;5.654;2023-03-04T20:17:39;11.97;;;2.60;;
40433;SDS011;26146;51.114;5.654;2023-03-04T20:21:40;10.50;;;2.63;;
40433;SDS011;26146;51.114;5.654;2023-03-04T20:25:41;13.83;;;4.17;;
40433;SDS011;26146;51.114;5.654;2023-03-04T20:29:42;13.23;;;3.07;;
40433;SDS011;26146;51.114;5.654;2023-03-04T20:33:44;11.60;;;3.10;;
40433;SDS011;26146;51.114;5.654;2023-03-04T20:37:49;11.43;;;2.50;;
40433;SDS011;26146;51.114;5.654;2023-03-04T20:41:50;8.10;;;2.10;;
40433;SDS011;26146;51.114;5.654;2023-03-04T20:45:51;10.37;;;1.30;;
40433;SDS011;26146;51.114;5.654;2023-03-04T20:49:52;11.47;;;2.77;;
40433;SDS011;26146;51.114;5.654;2023-03-04T20:53:56;13.47;;;3.03;;
40433;SDS011;26146;51.114;5.654;2023-03-04T20:57:58;11.07;;;3.60;;
40433;SDS011;26146;51.114;5.654;2023-03-04T21:01:59;15.97;;;5.43;;
40433;SDS011;26146;51.114;5.654;2023-03-04T21:06:03;11.27;;;3.20;;
40433;SDS011;26146;51.114;5.654;2023-03-04T21:10:05;10.40;;;3.30;;
40433;SDS011;26146;51.114;5.654;2023-03-04T21:14:10;10.23;;;3.27;;
40433;SDS011;26146;51.114;5.654;2023-03-04T21:18:11;12.70;;;3.33;;
40433;SDS011;26146;51.114;5.654;2023-03-04T21:22:13;13.03;;;3.50;;
40433;SDS011;26146;51.114;5.654;2023-03-04T21:26:16;13.03;;;3.17;;
40433;SDS011;26146;51.114;5.654;2023-03-04T21:30:18;8.20;;;2.60;;
40433;SDS011;26146;51.114;5.654;2023-03-04T21:34:23;11.83;;;2.80;;
40433;SDS011;26146;51.114;5.654;2023-03-04T21:38:29;9.87;;;2.90;;
40433;SDS011;26146;51.114;5.654;2023-03-04T21:42:30;11.30;;;3.00;;
40433;SDS011;26146;51.114;5.654;2023-03-04T21:46:31;14.73;;;3.03;;
40433;SDS011;26146;51.114;5.654;2023-03-04T21:50:32;11.13;;;2.70;;
40433;SDS011;26146;51.114;5.654;2023-03-04T21:54:33;11.30;;;3.03;;
40433;SDS011;26146;51.114;5.654;2023-03-04T21:58:34;14.03;;;3.20;;
40433;SDS011;26146;51.114;5.654;2023-03-04T22:02:40;9.97;;;3.00;;
40433;SDS011;26146;51.114;5.654;2023-03-04T22:06:41;11.27;;;3.10;;
40433;SDS011;26146;51.114;5.654;2023-03-04T22:10:47;12.00;;;3.40;;
40433;SDS011;26146;51.114;5.654;2023-03-04T22:14:48;14.50;;;3.80;;
40433;SDS011;26146;51.114;5.654;2023-03-04T22:18:49;12.10;;;3.63;;
40433;SDS011;26146;51.114;5.654;2023-03-04T22:22:50;10.13;;;3.10;;
40433;SDS011;26146;51.114;5.654;2023-03-04T22:26:50;8.93;;;3.10;;
40433;SDS011;26146;51.114;5.654;2023-03-04T22:30:51;11.17;;;3.10;;
40433;SDS011;26146;51.114;5.654;2023-03-04T22:34:52;13.17;;;3.23;;
40433;SDS011;26146;51.114;5.654;2023-03-04T22:38:54;12.13;;;3.03;;
40433;SDS011;26146;51.114;5.654;2023-03-04T22:42:55;13.07;;;3.90;;
40433;SDS011;26146;51.114;5.654;2023-03-04T22:46:56;13.23;;;4.40;;
40433;SDS011;26146;51.114;5.654;2023-03-04T22:50:57;13.00;;;3.83;;
40433;SDS011;26146;51.114;5.654;2023-03-04T22:55:05;12.40;;;3.30;;
40433;SDS011;26146;51.114;5.654;2023-03-04T22:59:06;12.93;;;3.20;;
40433;SDS011;26146;51.114;5.654;2023-03-04T23:03:07;12.23;;;3.30;;
40433;SDS011;26146;51.114;5.654;2023-03-04T23:07:09;11.43;;;3.60;;
40433;SDS011;26146;51.114;5.654;2023-03-04T23:11:14;12.17;;;3.20;;
40433;SDS011;26146;51.114;5.654;2023-03-04T23:15:21;11.87;;;3.10;;
40433;SDS011;26146;51.114;5.654;2023-03-04T23:19:22;15.50;;;4.17;;
40433;SDS011;26146;51.114;5.654;2023-03-04T23:23:23;14.67;;;5.17;;
40433;SDS011;26146;51.114;5.654;2023-03-04T23:27:24;14.83;;;5.50;;
40433;SDS011;26146;51.114;5.654;2023-03-04T23:31:25;14.93;;;4.90;;
40433;SDS011;26146;51.114;5.654;2023-03-04T23:35:29;16.60;;;4.27;;
40433;SDS011;26146;51.114;5.654;2023-03-04T23:39:30;12.60;;;3.50;;
40433;SDS011;26146;51.114;5.654;2023-03-04T23:43:31;12.67;;;3.50;;
40433;SDS011;26146;51.114;5.654;2023-03-04T23:47:32;10.83;;;3.40;;
40433;SDS011;26146;51.114;5.654;2023-03-04T23:51:33;13.43;;;2.97;;
40433;SDS011;26146;51.114;5.654;2023-03-04T23:55:34;11.23;;;3.00;;
40433;SDS011;26146;51.114;5.654;2023-03-04T23:59:36;10.73;;;2.80;;
